Time;durP1;ratioP1;P1;durP2;ratioP2;P2;SDS_P1;SDS_P2;PMS_P1;PMS_P2;Temp;Humidity;BMP_temperature;BMP_pressure;BME280_temperature;BME280_humidity;BME280_pressure;Samples;Min_cycle;Max_cycle;Signal;HPM_P1;HPM_P2
2021/05/14 00:01:03;;;;;;;0.22;0.00;;;15.60;91.10;;;;;;5031031;28;20159;-63
2021/05/14 00:03:30;;;;;;;0.35;0.10;;;15.50;91.00;;;;;;5036687;28;20485;-63
2021/05/14 00:05:58;;;;;;;0.20;0.00;;;15.60;90.90;;;;;;5032947;28;20053;-63
2021/05/14 00:08:25;;;;;;;1.10;0.05;;;15.50;90.60;;;;;;5043920;28;20050;-63
2021/05/14 00:10:52;;;;;;;0.22;0.10;;;15.60;90.40;;;;;;5030500;28;20056;-63
2021/05/14 00:13:19;;;;;;;0.70;0.10;;;15.50;90.50;;;;;;5052455;28;20053;-63
2021/05/14 00:15:46;;;;;;;0.40;0.10;;;15.50;90.40;;;;;;5052277;28;20377;-63
2021/05/14 00:18:13;;;;;;;0.43;0.10;;;15.60;90.40;;;;;;5051853;28;20166;-64
2021/05/14 00:20:42;;;;;;;0.82;0.10;;;15.50;90.90;;;;;;5052308;28;20053;-63
2021/05/14 00:23:10;;;;;;;1.35;0.10;;;15.40;90.80;;;;;;5054610;28;20072;-63
2021/05/14 00:25:38;;;;;;;0.20;0.10;;;15.40;91.00;;;;;;5052976;28;20451;-63
2021/05/14 00:28:05;;;;;;;3.42;0.10;;;15.40;91.20;;;;;;5025445;28;20068;-63
2021/05/14 00:30:32;;;;;;;0.30;0.10;;;15.30;91.50;;;;;;5029203;28;20053;-63
2021/05/14 00:32:59;;;;;;;0.40;0.10;;;15.30;90.90;;;;;;5053240;28;20408;-63
2021/05/14 00:35:26;;;;;;;0.30;0.10;;;15.30;91.30;;;;;;5033687;28;20115;-63
2021/05/14 00:37:53;;;;;;;0.13;0.03;;;15.30;91.10;;;;;;5050382;28;20045;-63
2021/05/14 00:40:20;;;;;;;0.30;0.10;;;15.30;90.90;;;;;;5052856;28;20095;-63
2021/05/14 00:42:48;;;;;;;0.30;0.10;;;15.30;90.70;;;;;;5049259;28;20049;-63
2021/05/14 00:45:15;;;;;;;0.40;0.28;;;15.30;90.60;;;;;;5031854;28;20048;-63
2021/05/14 00:47:42;;;;;;;0.35;0.17;;;15.30;90.60;;;;;;5028789;28;20050;-63
2021/05/14 00:50:10;;;;;;;0.30;0.05;;;15.20;90.70;;;;;;5051025;28;20052;-63
2021/05/14 00:52:37;;;;;;;0.40;0.10;;;15.30;90.60;;;;;;5052855;28;20059;-63
2021/05/14 00:55:05;;;;;;;0.25;0.10;;;15.30;90.30;;;;;;5034400;28;20057;-63
2021/05/14 00:57:33;;;;;;;0.25;0.10;;;15.30;90.30;;;;;;5015845;28;20060;-63
2021/05/14 01:00:00;;;;;;;0.30;0.10;;;15.30;90.20;;;;;;5047160;28;20057;-64
2021/05/14 01:02:27;;;;;;;0.50;0.10;;;15.30;90.00;;;;;;5051164;28;20400;-63
2021/05/14 01:04:54;;;;;;;0.28;0.20;;;15.30;90.00;;;;;;5009597;28;20050;-63
2021/05/14 01:07:21;;;;;;;0.20;0.00;;;15.30;90.00;;;;;;5051634;28;20048;-63
2021/05/14 01:09:49;;;;;;;0.63;0.10;;;15.20;90.10;;;;;;5031172;28;20044;-63
2021/05/14 01:12:17;;;;;;;0.30;0.00;;;15.20;90.00;;;;;;5033397;28;20553;-63
2021/05/14 01:14:44;;;;;;;0.40;0.10;;;15.20;90.20;;;;;;5052350;28;20053;-63
2021/05/14 01:17:11;;;;;;;0.22;0.10;;;15.20;90.30;;;;;;5040818;28;20388;-63
2021/05/14 01:19:39;;;;;;;1.75;0.00;;;15.20;90.10;;;;;;5026572;28;20041;-63
2021/05/14 01:22:06;;;;;;;0.57;0.10;;;15.20;90.20;;;;;;5051685;28;20096;-63
2021/05/14 01:24:34;;;;;;;1.05;0.03;;;15.30;89.80;;;;;;5025660;28;20487;-63
2021/05/14 01:27:01;;;;;;;0.52;0.10;;;15.20;90.00;;;;;;5046712;28;20609;-63
2021/05/14 01:29:28;;;;;;;1.02;0.10;;;15.20;90.00;;;;;;5045119;28;20947;-63
2021/05/14 01:31:55;;;;;;;0.30;0.00;;;15.20;90.10;;;;;;5033435;28;20060;-63
2021/05/14 01:34:24;;;;;;;1.30;0.10;;;15.10;90.20;;;;;;5024998;28;20373;-63
2021/05/14 01:36:51;;;;;;;0.50;0.10;;;15.10;90.40;;;;;;5045473;28;20111;-63
2021/05/14 01:39:22;;;;;;;1.92;0.35;;;15.20;90.40;;;;;;5048056;28;20080;-63
2021/05/14 01:41:51;;;;;;;1.10;0.03;;;15.20;90.20;;;;;;5032181;28;20107;-63
2021/05/14 01:44:18;;;;;;;0.68;0.10;;;15.20;90.20;;;;;;5026927;28;20049;-63
2021/05/14 01:46:46;;;;;;;0.50;0.13;;;15.20;90.30;;;;;;5027875;28;20072;-63
2021/05/14 01:49:13;;;;;;;0.30;0.10;;;15.30;90.60;;;;;;5030998;28;20555;-63
2021/05/14 01:51:41;;;;;;;0.40;0.10;;;15.20;90.10;;;;;;5023991;28;20439;-63
2021/05/14 01:54:08;;;;;;;1.88;0.20;;;15.30;90.20;;;;;;5047427;28;20052;-63
2021/05/14 01:56:35;;;;;;;0.30;0.10;;;15.30;90.00;;;;;;5045148;28;20060;-63
2021/05/14 01:59:05;;;;;;;0.65;0.10;;;15.30;90.20;;;;;;5051247;28;20441;-63
2021/05/14 02:01:32;;;;;;;0.65;0.10;;;15.30;90.10;;;;;;5029497;28;20049;-63
2021/05/14 02:03:59;;;;;;;0.30;0.10;;;15.20;90.00;;;;;;5031732;28;20582;-63
2021/05/14 02:06:26;;;;;;;0.40;0.10;;;15.20;90.20;;;;;;5028115;28;20045;-63
2021/05/14 02:08:53;;;;;;;0.20;0.10;;;15.20;90.50;;;;;;5050274;28;20045;-63
2021/05/14 02:11:20;;;;;;;0.82;0.20;;;15.20;90.40;;;;;;5050308;28;20063;-63
2021/05/14 02:13:47;;;;;;;0.50;0.10;;;15.30;90.20;;;;;;5050814;28;20083;-63
2021/05/14 02:16:14;;;;;;;0.17;0.10;;;15.30;90.20;;;;;;5032664;28;20455;-63
2021/05/14 02:18:41;;;;;;;0.50;0.10;;;15.30;90.20;;;;;;5049628;28;20421;-63
2021/05/14 02:21:08;;;;;;;0.60;0.32;;;15.20;90.20;;;;;;5049725;28;20099;-63
2021/05/14 02:23:37;;;;;;;1.17;0.03;;;15.20;90.40;;;;;;5045232;28;20111;-63
2021/05/14 02:26:05;;;;;;;1.02;0.10;;;15.20;90.40;;;;;;5040997;28;20060;-63
2021/05/14 02:28:32;;;;;;;0.55;0.20;;;15.20;90.60;;;;;;5046070;28;20103;-63
2021/05/14 02:31:00;;;;;;;0.55;0.15;;;15.20;90.40;;;;;;5047603;28;20044;-63
2021/05/14 02:33:27;;;;;;;1.52;0.10;;;15.20;90.50;;;;;;5047684;28;20116;-63
2021/05/14 02:35:54;;;;;;;0.30;0.10;;;15.20;90.60;;;;;;5049237;28;20063;-63
2021/05/14 02:38:21;;;;;;;0.52;0.30;;;15.30;90.40;;;;;;5048820;28;20049;-63
2021/05/14 02:40:48;;;;;;;1.65;0.15;;;15.30;90.20;;;;;;5050812;28;20146;-63
2021/05/14 02:43:16;;;;;;;0.77;0.20;;;15.20;90.20;;;;;;5049264;28;20052;-63
2021/05/14 02:45:43;;;;;;;0.55;0.10;;;15.20;90.50;;;;;;5014957;28;20048;-63
2021/05/14 02:48:10;;;;;;;0.80;0.13;;;15.20;90.40;;;;;;5049179;28;20069;-63
2021/05/14 02:50:38;;;;;;;0.52;0.10;;;15.20;90.30;;;;;;5050524;28;20119;-63
2021/05/14 02:53:05;;;;;;;0.63;0.17;;;15.30;90.50;;;;;;5030619;28;20063;-63
2021/05/14 02:55:32;;;;;;;0.40;0.10;;;15.20;90.50;;;;;;5047074;28;20115;-63
2021/05/14 02:57:59;;;;;;;1.50;0.10;;;15.20;90.70;;;;;;5049005;28;20052;-63
2021/05/14 03:00:27;;;;;;;1.13;0.35;;;15.30;90.60;;;;;;5039646;28;20563;-63
2021/05/14 03:02:54;;;;;;;0.65;0.10;;;15.20;90.40;;;;;;5021101;28;20411;-63
2021/05/14 03:05:21;;;;;;;1.13;0.20;;;15.30;90.60;;;;;;5031005;28;20515;-63
2021/05/14 03:07:48;;;;;;;2.05;0.13;;;15.30;90.60;;;;;;5049715;28;20041;-63
2021/05/14 03:10:15;;;;;;;0.70;0.13;;;15.30;90.60;;;;;;5049665;28;20052;-63
2021/05/14 03:12:42;;;;;;;0.40;0.10;;;15.20;90.90;;;;;;5033203;28;20053;-63
2021/05/14 03:15:10;;;;;;;0.95;0.47;;;15.30;91.10;;;;;;5022362;28;20061;-63
2021/05/14 03:17:37;;;;;;;0.77;0.20;;;15.30;90.80;;;;;;5047147;28;20052;-63
2021/05/14 03:20:09;;;;;;;0.50;0.10;;;15.30;90.80;;;;;;5054035;28;20124;-63
2021/05/14 03:22:36;;;;;;;0.60;0.20;;;15.20;90.90;;;;;;5050300;28;20397;-63
2021/05/14 03:25:05;;;;;;;0.40;0.10;;;15.20;91.10;;;;;;5037739;28;20049;-63
2021/05/14 03:27:32;;;;;;;0.50;0.10;;;15.30;90.60;;;;;;5027775;28;20046;-63
2021/05/14 03:30:00;;;;;;;0.60;0.10;;;15.30;90.70;;;;;;5047818;28;20049;-63
2021/05/14 03:32:27;;;;;;;0.30;0.10;;;15.30;90.70;;;;;;5054104;28;20083;-63
2021/05/14 03:34:54;;;;;;;0.63;0.10;;;15.30;90.70;;;;;;5053799;28;20067;-63
2021/05/14 03:37:21;;;;;;;0.70;0.20;;;15.40;90.80;;;;;;5052872;28;20567;-63
2021/05/14 03:39:52;;;;;;;0.40;0.10;;;15.40;91.20;;;;;;5035437;28;20167;-63
2021/05/14 03:42:25;;;;;;;0.60;0.20;;;15.40;90.80;;;;;;5031581;28;20145;-63
2021/05/14 03:44:53;;;;;;;2.45;0.17;;;15.30;90.50;;;;;;5052193;28;20128;-63
2021/05/14 03:47:23;;;;;;;0.52;0.13;;;15.30;90.60;;;;;;5033222;28;20037;-63
2021/05/14 03:49:50;;;;;;;0.65;0.10;;;15.30;90.50;;;;;;5030755;28;20140;-63
2021/05/14 03:52:18;;;;;;;2.05;0.20;;;15.30;90.80;;;;;;5052022;28;20056;-63
2021/05/14 03:54:45;;;;;;;0.85;0.17;;;15.30;91.10;;;;;;5052150;28;20045;-63
2021/05/14 03:57:13;;;;;;;0.73;0.20;;;15.30;90.80;;;;;;5012613;28;20151;-63
2021/05/14 03:59:41;;;;;;;0.70;0.20;;;15.30;90.70;;;;;;5052930;28;20053;-63
2021/05/14 04:02:09;;;;;;;2.45;0.30;;;15.30;90.90;;;;;;5033737;28;20049;-63
2021/05/14 04:04:36;;;;;;;1.38;0.20;;;15.20;90.80;;;;;;5053381;28;20060;-63
2021/05/14 04:07:05;;;;;;;0.45;0.20;;;15.20;90.90;;;;;;5053229;28;20052;-63
2021/05/14 04:09:34;;;;;;;0.95;0.30;;;15.20;91.00;;;;;;5052785;28;20107;-63
2021/05/14 04:14:34;;;;;;;2.15;0.43;;;15.20;90.90;;;;;;5052752;28;20041;-63
2021/05/14 04:17:09;;;;;;;1.48;0.40;;;15.20;91.20;;;;;;5037265;28;20152;-63
2021/05/14 04:19:36;;;;;;;1.38;0.22;;;15.20;91.10;;;;;;5049337;28;20111;-63
2021/05/14 04:22:04;;;;;;;0.70;0.20;;;15.20;91.00;;;;;;5050162;28;20076;-63
2021/05/14 04:24:32;;;;;;;1.38;0.20;;;15.20;91.00;;;;;;5052614;28;20099;-63
2021/05/14 04:26:59;;;;;;;0.70;0.20;;;15.20;90.70;;;;;;5034850;28;20037;-63
2021/05/14 04:29:26;;;;;;;0.20;0.08;;;15.20;91.00;;;;;;5033408;28;20048;-63
2021/05/14 04:31:54;;;;;;;0.35;0.10;;;15.30;90.30;;;;;;5050845;28;20045;-63
2021/05/14 04:34:21;;;;;;;0.68;0.20;;;15.20;90.50;;;;;;5048979;28;20106;-63
2021/05/14 04:36:55;;;;;;;0.40;0.10;;;15.10;90.10;;;;;;5049856;28;20056;-63
2021/05/14 04:39:22;;;;;;;0.60;0.30;;;15.20;90.40;;;;;;5054008;28;20045;-63
2021/05/14 04:41:49;;;;;;;1.55;0.10;;;15.10;90.40;;;;;;5053813;28;20053;-64
2021/05/14 04:44:16;;;;;;;2.05;0.20;;;15.10;90.10;;;;;;5052930;28;20045;-64
2021/05/14 04:46:44;;;;;;;0.30;0.10;;;15.10;90.40;;;;;;5049509;28;20124;-63
2021/05/14 04:49:12;;;;;;;0.50;0.10;;;15.20;90.50;;;;;;5034911;28;20059;-63
2021/05/14 04:51:39;;;;;;;0.68;0.20;;;15.10;90.30;;;;;;5054035;28;20045;-63
2021/05/14 04:54:06;;;;;;;1.10;0.20;;;15.20;90.60;;;;;;5049845;28;20492;-63
2021/05/14 04:56:33;;;;;;;0.50;0.10;;;15.20;90.40;;;;;;5041716;28;20041;-63
2021/05/14 04:59:00;;;;;;;0.55;0.10;;;15.10;90.20;;;;;;5051032;28;20106;-63
2021/05/14 05:01:27;;;;;;;0.75;0.20;;;15.10;90.70;;;;;;5047032;28;20460;-63
2021/05/14 05:03:56;;;;;;;0.60;0.20;;;15.10;90.30;;;;;;5024494;28;20045;-63
2021/05/14 05:06:23;;;;;;;0.22;0.03;;;15.10;90.50;;;;;;5029583;28;20408;-63
2021/05/14 05:08:51;;;;;;;0.50;0.10;;;15.10;90.40;;;;;;5023079;28;20407;-63
2021/05/14 05:11:18;;;;;;;0.60;0.20;;;15.20;90.20;;;;;;5053372;28;20049;-63
2021/05/14 05:13:45;;;;;;;0.57;0.20;;;15.10;90.20;;;;;;5027573;28;20451;-63
2021/05/14 05:16:12;;;;;;;0.35;0.20;;;15.10;90.20;;;;;;5046653;28;20049;-63
2021/05/14 05:18:39;;;;;;;0.40;0.08;;;15.10;90.50;;;;;;5048605;28;20139;-63
2021/05/14 05:21:06;;;;;;;0.77;0.10;;;15.10;90.20;;;;;;5025951;28;20049;-63
2021/05/14 05:23:33;;;;;;;0.70;0.10;;;15.10;90.40;;;;;;5035272;28;20045;-63
2021/05/14 05:26:00;;;;;;;1.30;0.10;;;15.10;90.60;;;;;;5051273;28;20037;-63
2021/05/14 05:28:29;;;;;;;1.60;0.20;;;15.10;90.60;;;;;;5051154;28;20052;-63
2021/05/14 05:30:57;;;;;;;0.40;0.17;;;15.10;90.60;;;;;;5052208;28;20055;-63
2021/05/14 05:33:25;;;;;;;1.52;0.20;;;15.10;90.90;;;;;;5034373;28;20703;-63
2021/05/14 05:35:54;;;;;;;0.30;0.10;;;15.20;90.60;;;;;;5032144;28;20106;-63
2021/05/14 05:38:24;;;;;;;0.70;0.17;;;15.20;90.50;;;;;;5050725;28;20044;-63
2021/05/14 05:40:52;;;;;;;0.35;0.10;;;15.20;90.00;;;;;;5035353;28;20057;-63
2021/05/14 05:43:19;;;;;;;1.73;0.13;;;15.20;89.20;;;;;;5052181;28;20072;-63
2021/05/14 05:45:47;;;;;;;0.57;0.17;;;15.20;89.40;;;;;;5026332;28;20068;-63
2021/05/14 05:48:14;;;;;;;0.73;0.10;;;15.20;89.40;;;;;;5047989;28;20045;-63
2021/05/14 05:50:42;;;;;;;1.23;0.20;;;15.20;89.30;;;;;;5050100;28;20131;-63
2021/05/14 05:53:09;;;;;;;0.32;0.20;;;15.20;89.60;;;;;;5033041;28;20420;-63
2021/05/14 05:55:37;;;;;;;0.65;0.10;;;15.20;89.60;;;;;;5014362;28;20337;-63
2021/05/14 05:58:09;;;;;;;0.73;0.10;;;15.20;90.10;;;;;;5029392;28;20062;-63
2021/05/14 06:00:36;;;;;;;0.55;0.10;;;15.20;89.40;;;;;;5030171;28;20045;-63
2021/05/14 06:03:05;;;;;;;0.30;0.10;;;15.20;88.70;;;;;;5044580;28;20041;-63
2021/05/14 06:05:32;;;;;;;0.40;0.10;;;15.20;88.40;;;;;;5028988;28;20045;-63
2021/05/14 06:07:59;;;;;;;0.98;0.20;;;15.20;88.90;;;;;;5032935;28;20381;-63
2021/05/14 06:10:26;;;;;;;0.45;0.10;;;15.10;87.40;;;;;;5049016;28;20049;-63
2021/05/14 06:12:53;;;;;;;0.60;0.10;;;15.10;87.40;;;;;;5049083;28;20075;-63
2021/05/14 06:15:23;;;;;;;0.45;0.10;;;15.10;87.60;;;;;;5039937;28;20520;-63
2021/05/14 06:17:50;;;;;;;0.85;0.10;;;15.20;87.30;;;;;;5048427;28;20040;-63
2021/05/14 06:20:23;;;;;;;0.43;0.10;;;15.20;88.00;;;;;;5048455;28;20634;-63
2021/05/14 06:22:50;;;;;;;;;;;15.20;87.30;;;;;;5025329;28;20054;-63
2021/05/14 06:25:18;;;;;;;2.38;0.10;;;15.20;86.90;;;;;;5030481;28;19928;-63
2021/05/14 06:27:46;;;;;;;2.47;0.17;;;15.20;87.20;;;;;;5048942;28;20049;-63
2021/05/14 06:30:14;;;;;;;0.40;0.10;;;15.20;87.00;;;;;;5048788;28;20072;-63
2021/05/14 06:32:42;;;;;;;2.35;0.15;;;15.20;86.80;;;;;;5043513;28;20049;-63
2021/05/14 06:35:10;;;;;;;0.63;0.30;;;15.20;86.40;;;;;;5037397;28;20053;-63
2021/05/14 06:37:38;;;;;;;2.20;0.10;;;15.20;86.50;;;;;;5040224;28;20053;-63
2021/05/14 06:40:07;;;;;;;0.52;0.10;;;15.20;87.10;;;;;;5025632;28;20049;-63
2021/05/14 06:42:34;;;;;;;0.40;0.20;;;15.20;86.80;;;;;;5033073;28;20049;-63
2021/05/14 06:45:02;;;;;;;2.45;0.10;;;15.20;87.00;;;;;;5043781;28;20048;-63
2021/05/14 06:47:29;;;;;;;0.55;0.10;;;15.20;86.30;;;;;;5047287;28;20037;-63
2021/05/14 06:49:57;;;;;;;1.25;0.25;;;15.20;87.20;;;;;;5018870;28;20068;-63
2021/05/14 06:52:24;;;;;;;0.60;0.10;;;15.20;87.70;;;;;;5026925;28;20057;-63
2021/05/14 06:54:51;;;;;;;0.77;0.20;;;15.20;88.00;;;;;;5027640;28;20055;-63
2021/05/14 06:57:18;;;;;;;0.63;0.10;;;15.30;88.20;;;;;;5027517;28;20175;-63
2021/05/14 06:59:45;;;;;;;0.47;0.10;;;15.30;87.40;;;;;;5025601;28;20053;-63
2021/05/14 07:02:13;;;;;;;1.55;0.10;;;15.30;88.00;;;;;;5021265;28;20053;-63
2021/05/14 07:04:40;;;;;;;0.55;0.20;;;15.30;87.10;;;;;;5028616;28;20067;-63
2021/05/14 07:07:07;;;;;;;0.47;0.17;;;15.20;86.10;;;;;;5047899;28;20045;-63
2021/05/14 07:09:34;;;;;;;0.82;0.30;;;15.20;86.50;;;;;;5047615;28;20583;-63
2021/05/14 07:12:02;;;;;;;1.27;0.20;;;15.20;86.20;;;;;;5047339;28;20049;-63
2021/05/14 07:14:30;;;;;;;1.63;0.30;;;15.20;87.00;;;;;;5047651;28;20052;-63
2021/05/14 07:16:57;;;;;;;0.50;0.10;;;15.20;87.30;;;;;;5027289;28;20490;-63
2021/05/14 07:19:26;;;;;;;0.93;0.20;;;15.20;87.50;;;;;;5026819;28;20049;-63
2021/05/14 07:21:54;;;;;;;0.65;0.10;;;15.20;87.60;;;;;;5047369;28;20508;-63
2021/05/14 07:24:22;;;;;;;0.88;0.20;;;15.20;87.40;;;;;;5043606;28;20116;-63
2021/05/14 07:26:49;;;;;;;2.15;0.13;;;15.20;87.30;;;;;;5046874;28;20045;-63
2021/05/14 07:29:16;;;;;;;0.35;0.10;;;15.30;88.30;;;;;;5041528;28;20045;-63
2021/05/14 07:31:43;;;;;;;1.75;0.20;;;15.20;87.10;;;;;;5028322;28;20462;-63
2021/05/14 07:34:11;;;;;;;0.60;0.20;;;15.20;86.60;;;;;;5045580;28;20507;-63
2021/05/14 07:36:50;;;;;;;2.75;0.40;;;15.20;87.00;;;;;;5031096;28;20055;-63
2021/05/14 07:39:18;;;;;;;1.15;0.40;;;15.20;86.80;;;;;;5009302;28;20048;-63
2021/05/14 07:41:45;;;;;;;2.28;0.20;;;15.20;87.20;;;;;;5042268;28;20049;-65
2021/05/14 07:44:12;;;;;;;0.43;0.13;;;15.10;87.50;;;;;;5029021;28;20045;-65
2021/05/14 07:46:39;;;;;;;0.70;0.30;;;15.10;87.00;;;;;;5013836;28;20107;-65
2021/05/14 07:49:06;;;;;;;1.38;0.20;;;15.10;88.10;;;;;;5031077;28;20079;-65
2021/05/14 07:51:33;;;;;;;1.42;0.15;;;15.10;87.80;;;;;;5047302;28;20063;-65
2021/05/14 07:54:00;;;;;;;0.82;0.20;;;15.10;87.60;;;;;;5048473;28;20114;-65
2021/05/14 07:56:27;;;;;;;0.90;0.30;;;15.20;88.20;;;;;;5028846;28;20056;-65
2021/05/14 07:58:54;;;;;;;1.17;0.20;;;15.20;89.30;;;;;;5048153;28;20044;-65
2021/05/14 08:01:21;;;;;;;1.05;0.30;;;15.20;88.50;;;;;;5027489;28;20041;-65
2021/05/14 08:03:48;;;;;;;1.30;0.20;;;15.20;88.90;;;;;;5046663;28;20095;-65
2021/05/14 08:06:18;;;;;;;0.73;0.20;;;15.30;89.00;;;;;;5050762;28;20048;-66
2021/05/14 08:08:46;;;;;;;0.88;0.20;;;15.30;89.10;;;;;;5047871;28;20807;-66
2021/05/14 08:11:13;;;;;;;1.15;0.30;;;15.30;88.20;;;;;;5043765;28;20053;-67
2021/05/14 08:13:40;;;;;;;2.28;0.40;;;15.20;89.60;;;;;;5028114;28;20041;-66
2021/05/14 08:16:07;;;;;;;1.52;0.40;;;15.30;89.80;;;;;;5027639;28;20082;-66
2021/05/14 08:18:34;;;;;;;2.05;0.30;;;15.20;90.00;;;;;;5033737;28;20590;-65
2021/05/14 08:21:02;;;;;;;0.22;0.20;;;15.20;89.20;;;;;;5013096;28;20046;-65
2021/05/14 08:23:29;;;;;;;0.40;0.15;;;15.30;90.10;;;;;;5044910;28;20415;-65
2021/05/14 08:25:56;;;;;;;0.60;0.10;;;15.30;90.10;;;;;;5022481;28;20509;-64
2021/05/14 08:28:23;;;;;;;0.35;0.10;;;15.30;89.50;;;;;;5044260;28;20059;-65
2021/05/14 08:30:50;;;;;;;0.45;0.10;;;15.30;88.60;;;;;;5046823;28;20060;-65
2021/05/14 08:33:17;;;;;;;1.05;0.17;;;15.30;88.70;;;;;;5047692;28;20045;-65
2021/05/14 08:35:44;;;;;;;0.85;0.20;;;15.30;89.10;;;;;;5047229;28;20431;-65
2021/05/14 08:38:12;;;;;;;1.63;0.10;;;15.40;89.80;;;;;;5028534;28;20126;-65
2021/05/14 08:40:40;;;;;;;1.95;0.30;;;15.40;88.90;;;;;;5046286;28;20041;-65
2021/05/14 08:43:11;;;;;;;1.10;0.50;;;15.40;89.20;;;;;;5013877;28;20099;-66
2021/05/14 08:45:40;;;;;;;0.40;0.20;;;15.40;90.10;;;;;;5047280;28;20449;-65
2021/05/14 08:48:13;;;;;;;0.32;0.20;;;15.50;88.70;;;;;;5012529;28;20053;-65
2021/05/14 08:50:42;;;;;;;0.75;0.20;;;15.40;88.80;;;;;;5026101;28;20071;-65
2021/05/14 08:53:29;;;;;;;1.10;0.20;;;15.40;89.90;;;;;;5028565;28;20393;-65
2021/05/14 08:55:57;;;;;;;0.20;0.10;;;15.40;90.60;;;;;;5027538;28;20053;-65
2021/05/14 08:58:25;;;;;;;1.45;0.10;;;15.40;90.30;;;;;;5027824;28;20051;-65
2021/05/14 09:00:52;;;;;;;0.50;0.10;;;15.30;90.70;;;;;;5029321;28;20056;-67
2021/05/14 09:03:24;;;;;;;0.75;0.10;;;15.20;91.10;;;;;;5026581;28;20045;-66
2021/05/14 09:05:53;;;;;;;0.65;0.10;;;15.20;91.20;;;;;;5028255;28;20531;-66
2021/05/14 09:08:31;;;;;;;0.68;0.10;;;15.20;91.00;;;;;;5023401;28;20172;-66
2021/05/14 09:10:59;;;;;;;0.30;0.10;;;15.30;90.20;;;;;;5045693;28;20140;-67
2021/05/14 09:13:37;;;;;;;0.45;0.00;;;15.30;88.30;;;;;;5028768;28;20488;-66
2021/05/14 09:16:05;;;;;;;1.15;0.10;;;15.40;88.10;;;;;;5045791;28;20055;-66
2021/05/14 09:18:33;;;;;;;3.05;0.13;;;15.40;87.60;;;;;;5027012;28;20068;-67
2021/05/14 09:21:02;;;;;;;0.63;0.10;;;15.40;86.00;;;;;;5013068;28;20060;-66
2021/05/14 09:23:31;;;;;;;0.30;0.20;;;15.40;87.20;;;;;;5041532;28;20609;-67
2021/05/14 09:26:10;;;;;;;0.20;0.10;;;15.50;87.20;;;;;;5045109;28;20053;-66
2021/05/14 09:28:42;;;;;;;1.25;0.10;;;15.50;88.00;;;;;;5040199;28;20048;-67
2021/05/14 09:31:17;;;;;;;0.40;0.10;;;15.60;88.20;;;;;;5029587;28;20064;-67
2021/05/14 09:33:45;;;;;;;0.90;0.20;;;15.60;87.40;;;;;;5048664;28;20056;-68
2021/05/14 09:36:17;;;;;;;0.68;0.15;;;15.70;87.50;;;;;;5045123;28;20048;-67
2021/05/14 09:38:50;;;;;;;0.98;0.10;;;15.80;87.50;;;;;;5012059;28;20064;-67
2021/05/14 09:41:40;;;;;;;0.60;0.10;;;15.90;88.30;;;;;;5042852;28;20049;-67
2021/05/14 09:44:11;;;;;;;1.48;0.13;;;15.90;85.90;;;;;;5026785;28;20049;-68
2021/05/14 09:46:44;;;;;;;2.58;0.10;;;15.90;84.70;;;;;;5046637;28;20508;-65
2021/05/14 09:49:22;;;;;;;0.70;0.10;;;15.90;86.10;;;;;;5045349;28;20045;-66
2021/05/14 09:51:55;;;;;;;0.65;0.10;;;15.90;84.50;;;;;;5038049;28;20539;-66
2021/05/14 09:54:37;;;;;;;0.65;0.32;;;16.00;84.50;;;;;;5047968;28;20162;-66
2021/05/14 09:59:50;;;;;;;0.60;0.30;;;15.90;84.10;;;;;;5046016;28;20057;-66
2021/05/14 10:02:29;;;;;;;1.60;0.10;;;15.90;84.00;;;;;;5027331;28;20063;-66
2021/05/14 10:04:59;;;;;;;0.50;0.17;;;15.90;84.70;;;;;;5036942;28;20061;-66
2021/05/14 10:07:30;;;;;;;1.23;0.20;;;15.80;85.30;;;;;;5023047;28;20131;-66
2021/05/14 10:10:00;;;;;;;0.70;0.20;;;15.70;84.90;;;;;;5010189;28;20136;-65
2021/05/14 10:12:28;;;;;;;0.45;0.10;;;15.70;86.40;;;;;;5048443;28;20052;-66
2021/05/14 10:14:58;;;;;;;0.50;0.20;;;15.70;86.40;;;;;;5044696;28;20049;-65
2021/05/14 10:17:26;;;;;;;0.82;0.20;;;15.70;86.20;;;;;;5045420;28;20057;-65
2021/05/14 10:19:55;;;;;;;1.35;0.30;;;15.60;86.00;;;;;;5029443;28;20516;-65
2021/05/14 10:22:28;;;;;;;0.77;0.20;;;15.60;86.20;;;;;;5023689;28;20044;-65
2021/05/14 10:24:59;;;;;;;3.08;0.22;;;15.60;87.20;;;;;;5024159;28;20120;-66
2021/05/14 10:27:38;;;;;;;2.67;0.50;;;15.60;87.80;;;;;;5044843;28;20067;-66
2021/05/14 10:30:06;;;;;;;3.08;0.35;;;15.70;89.00;;;;;;5026407;28;20774;-66
2021/05/14 10:32:46;;;;;;;1.85;0.40;;;15.70;88.80;;;;;;5027252;28;20059;-66
2021/05/14 10:35:22;;;;;;;1.02;0.32;;;15.80;89.20;;;;;;5037439;28;20081;-66
2021/05/14 10:37:51;;;;;;;1.38;0.30;;;15.80;87.30;;;;;;5048186;28;20048;-65
2021/05/14 10:40:31;;;;;;;2.03;0.20;;;15.90;85.50;;;;;;5026654;28;20061;-66
2021/05/14 10:43:00;;;;;;;0.65;0.20;;;15.90;85.50;;;;;;5028154;28;20049;-66
2021/05/14 10:46:01;;;;;;;1.95;0.30;;;15.90;86.20;;;;;;5043378;28;20045;-66
2021/05/14 10:48:28;;;;;;;3.58;0.20;;;15.90;85.00;;;;;;5027661;28;20156;-66
2021/05/14 10:50:59;;;;;;;3.83;0.20;;;15.90;83.90;;;;;;5014195;28;20121;-66
2021/05/14 10:53:37;;;;;;;5.97;1.27;;;15.80;84.30;;;;;;5050309;28;20049;-66
2021/05/14 10:56:10;;;;;;;2.03;0.30;;;15.80;84.30;;;;;;5036835;28;20041;-66
2021/05/14 10:58:49;;;;;;;0.95;0.10;;;15.80;83.80;;;;;;5024120;28;20045;-66
2021/05/14 11:01:28;;;;;;;0.93;0.10;;;15.80;83.50;;;;;;5041569;28;20053;-66
2021/05/14 11:03:55;;;;;;;0.60;0.20;;;15.90;84.30;;;;;;5035879;28;20040;-66
2021/05/14 11:06:23;;;;;;;1.25;0.20;;;15.90;85.30;;;;;;5040548;28;20703;-66
2021/05/14 11:08:58;;;;;;;0.88;0.10;;;16.00;83.50;;;;;;5048429;28;20053;-66
2021/05/14 11:12:02;;;;;;;1.13;0.10;;;16.10;84.10;;;;;;5047025;28;20648;-66
2021/05/14 11:14:56;;;;;;;0.60;0.20;;;16.10;83.70;;;;;;5030680;28;20056;-66
2021/05/14 11:17:24;;;;;;;0.73;0.10;;;16.10;83.10;;;;;;4996497;28;20054;-66
2021/05/14 11:19:53;;;;;;;1.08;0.20;;;16.10;81.80;;;;;;5030614;28;20053;-66
2021/05/14 11:22:26;;;;;;;2.83;0.80;;;16.10;82.20;;;;;;5048743;28;20037;-66
2021/05/14 11:25:00;;;;;;;3.65;0.32;;;16.10;82.90;;;;;;5030148;28;20056;-66
2021/05/14 11:27:34;;;;;;;2.40;0.13;;;16.10;82.70;;;;;;5047849;28;20080;-66
2021/05/14 11:30:07;;;;;;;0.50;0.20;;;16.00;82.70;;;;;;5040209;28;20104;-66
2021/05/14 11:32:42;;;;;;;0.88;0.20;;;15.90;83.30;;;;;;5028174;28;20049;-66
2021/05/14 11:35:20;;;;;;;1.25;0.20;;;15.90;82.80;;;;;;5030860;28;20057;-66
2021/05/14 11:37:53;;;;;;;0.80;0.20;;;15.90;82.70;;;;;;5048517;28;20065;-65
2021/05/14 11:40:21;;;;;;;0.80;0.20;;;15.80;83.50;;;;;;5025136;28;20511;-65
2021/05/14 11:42:56;;;;;;;0.40;0.25;;;15.80;82.90;;;;;;5032844;28;20053;-66
2021/05/14 11:45:32;;;;;;;0.80;0.20;;;15.80;82.90;;;;;;5030203;28;20100;-66
2021/05/14 11:48:00;;;;;;;0.77;0.20;;;15.80;83.60;;;;;;5034275;28;20084;-66
2021/05/14 11:50:34;;;;;;;0.40;0.10;;;15.90;83.70;;;;;;5012692;28;20049;-66
2021/05/14 11:53:05;;;;;;;0.50;0.22;;;15.90;82.60;;;;;;5040801;28;20056;-66
2021/05/14 11:55:34;;;;;;;0.30;0.10;;;16.00;81.40;;;;;;5032814;28;20369;-66
2021/05/14 11:58:01;;;;;;;0.55;0.00;;;16.00;81.30;;;;;;5053259;28;20551;-66
2021/05/14 12:00:51;;;;;;;0.30;0.10;;;16.10;80.40;;;;;;5043745;28;20052;-66
2021/05/14 12:03:22;;;;;;;1.67;0.10;;;16.20;80.80;;;;;;5050333;28;20057;-66
2021/05/14 12:05:51;;;;;;;1.17;0.10;;;16.30;80.00;;;;;;5034320;28;20053;-66
2021/05/14 12:08:19;;;;;;;0.25;0.10;;;16.40;78.10;;;;;;5053481;28;20384;-66
2021/05/14 12:10:55;;;;;;;1.30;0.10;;;16.40;79.40;;;;;;5035803;28;20049;-66
2021/05/14 12:13:29;;;;;;;0.68;0.10;;;16.50;81.00;;;;;;5031513;28;20055;-66
2021/05/14 12:16:06;;;;;;;1.85;0.10;;;16.60;80.70;;;;;;5046711;28;20049;-66
2021/05/14 12:18:35;;;;;;;1.58;0.15;;;16.70;78.80;;;;;;5029487;28;20061;-66
2021/05/14 12:21:06;;;;;;;0.70;0.20;;;16.80;77.80;;;;;;5033066;28;20103;-66
2021/05/14 12:23:33;;;;;;;1.08;0.10;;;16.90;77.20;;;;;;5015808;28;20061;-66
2021/05/14 12:26:06;;;;;;;0.60;0.15;;;16.80;76.40;;;;;;5025793;28;20769;-66
2021/05/14 12:28:46;;;;;;;0.10;0.10;;;16.80;76.20;;;;;;5044350;28;20065;-66
2021/05/14 12:31:23;;;;;;;2.08;0.10;;;16.80;76.60;;;;;;5046795;28;20048;-66
2021/05/14 12:33:52;;;;;;;2.80;0.10;;;16.70;76.40;;;;;;5045900;28;20069;-66
2021/05/14 12:36:30;;;;;;;2.47;0.10;;;16.60;76.70;;;;;;5033142;28;20915;-66
2021/05/14 12:39:03;;;;;;;0.40;0.30;;;16.60;76.90;;;;;;5049586;28;20056;-66
2021/05/14 12:41:32;;;;;;;0.93;0.35;;;16.50;77.00;;;;;;5051171;28;20106;-66
2021/05/14 12:44:09;;;;;;;0.30;0.10;;;16.50;78.10;;;;;;5050613;28;20049;-66
2021/05/14 12:46:37;;;;;;;0.43;0.32;;;16.40;78.30;;;;;;5049460;28;20543;-66
2021/05/14 12:49:12;;;;;;;1.35;0.10;;;16.40;76.50;;;;;;5032778;28;20120;-66
2021/05/14 12:51:39;;;;;;;0.30;0.00;;;16.40;76.80;;;;;;5032437;28;20126;-66
2021/05/14 12:54:06;;;;;;;1.38;0.20;;;16.40;76.50;;;;;;5032338;28;20052;-66
2021/05/14 12:56:45;;;;;;;0.95;0.08;;;16.40;76.30;;;;;;5046245;28;20060;-66
2021/05/14 12:59:18;;;;;;;4.35;0.50;;;16.40;76.30;;;;;;5044619;28;20041;-65
2021/05/14 13:01:50;;;;;;;1.15;0.10;;;16.60;76.00;;;;;;5033098;28;20559;-66
2021/05/14 13:04:18;;;;;;;1.17;0.10;;;16.70;76.10;;;;;;5032871;28;20049;-66